createdAt,value
2018-02-20T00:00:27.216Z,44.07
2018-02-20T00:02:54.685Z,39.30
2018-02-20T00:05:22.152Z,38.17
2018-02-20T00:07:49.606Z,38.10
2018-02-20T00:10:17.064Z,38.83
2018-02-20T00:12:44.522Z,36.63
2018-02-20T00:15:11.976Z,33.83
2018-02-20T00:17:39.471Z,40.30
2018-02-20T00:20:06.918Z,39.77
2018-02-20T00:22:35.142Z,38.43
2018-02-20T00:25:02.590Z,35.47
2018-02-20T00:27:30.053Z,38.73
2018-02-20T00:29:57.507Z,37.57
2018-02-20T00:32:24.959Z,38.07
2018-02-20T00:34:52.423Z,37.70
2018-02-20T00:37:19.881Z,43.20
2018-02-20T00:39:47.335Z,38.70
2018-02-20T00:42:14.821Z,38.10
2018-02-20T00:44:42.306Z,40.33
2018-02-20T00:47:09.761Z,42.17
2018-02-20T00:49:37.245Z,40.57
2018-02-20T00:52:04.714Z,40.13
2018-02-20T00:54:32.169Z,39.17
2018-02-20T00:56:59.654Z,39.03
2018-02-20T00:59:27.106Z,38.87
2018-02-20T01:01:54.557Z,39.63
2018-02-20T01:04:22.038Z,37.97
2018-02-20T01:06:50.254Z,41.07
2018-02-20T01:09:17.715Z,41.33
2018-02-20T01:11:45.184Z,41.67
2018-02-20T01:14:12.646Z,41.83
2018-02-20T01:16:40.138Z,38.53
2018-02-20T01:19:07.592Z,42.20
2018-02-20T01:21:35.092Z,44.77
2018-02-20T01:24:02.536Z,40.40
2018-02-20T01:26:30.014Z,44.83
2018-02-20T01:28:57.476Z,40.60
2018-02-20T01:31:25.353Z,41.87
2018-02-20T01:33:52.818Z,40.23
2018-02-20T01:36:20.299Z,42.47
2018-02-20T01:38:47.771Z,37.27
2018-02-20T01:41:15.219Z,41.00
2018-02-20T01:43:42.764Z,42.43
2018-02-20T01:46:10.214Z,42.57
2018-02-20T01:48:37.686Z,41.60
2018-02-20T01:51:08.625Z,39.53
2018-02-20T01:53:36.079Z,39.17
2018-02-20T01:56:03.534Z,35.67
2018-02-20T01:58:30.993Z,37.57
2018-02-20T02:00:58.446Z,37.90
2018-02-20T02:03:25.909Z,42.00
2018-02-20T02:05:53.361Z,40.13
2018-02-20T02:08:20.814Z,39.57
2018-02-20T02:10:48.282Z,35.63
2018-02-20T02:13:16.508Z,40.43
2018-02-20T02:15:44.314Z,40.67
2018-02-20T02:18:11.762Z,39.20
2018-02-20T02:20:39.227Z,36.63
2018-02-20T02:23:07.406Z,34.00
2018-02-20T02:25:34.906Z,34.67
2018-02-20T02:28:02.396Z,41.77
2018-02-20T02:30:29.850Z,37.97
2018-02-20T02:32:57.305Z,38.13
2018-02-20T02:35:24.788Z,35.40
2018-02-20T02:37:52.250Z,38.70
2018-02-20T02:40:19.795Z,36.27
2018-02-20T02:42:47.564Z,39.23
2018-02-20T02:45:15.193Z,33.20
2018-02-20T02:47:42.784Z,35.70
2018-02-20T02:50:10.244Z,36.20
2018-02-20T02:52:37.995Z,38.00
2018-02-20T02:55:05.470Z,33.70
2018-02-20T02:57:32.918Z,37.63
2018-02-20T03:00:00.669Z,32.97
2018-02-20T03:02:28.143Z,37.27
2018-02-20T03:04:55.616Z,35.20
2018-02-20T03:07:23.061Z,35.40
2018-02-20T03:09:50.518Z,36.50
2018-02-20T03:12:18.202Z,36.80
2018-02-20T03:14:45.677Z,32.83
2018-02-20T03:17:13.182Z,34.20
2018-02-20T03:19:40.653Z,38.17
2018-02-20T03:22:08.129Z,39.20
2018-02-20T03:24:35.589Z,35.80
2018-02-20T03:27:03.621Z,35.10
2018-02-20T03:29:31.079Z,31.67
2018-02-20T03:31:58.538Z,36.37
2018-02-20T03:34:26.286Z,36.67
2018-02-20T03:36:53.750Z,35.40
2018-02-20T03:39:21.214Z,37.30
2018-02-20T03:41:48.835Z,35.07
2018-02-20T03:44:16.313Z,33.50
2018-02-20T03:46:43.771Z,33.73
2018-02-20T03:49:11.233Z,31.27
2018-02-20T03:51:38.720Z,32.07
2018-02-20T03:54:06.245Z,36.10
2018-02-20T03:56:33.717Z,36.43
2018-02-20T03:59:01.195Z,35.87
2018-02-20T04:01:28.829Z,36.23
2018-02-20T04:03:56.294Z,35.10
2018-02-20T04:06:23.843Z,32.80
2018-02-20T04:08:51.482Z,28.10
2018-02-20T04:11:18.945Z,28.10
2018-02-20T04:13:46.617Z,31.53
2018-02-20T04:16:14.087Z,33.17
2018-02-20T04:18:41.551Z,29.67
2018-02-20T04:21:09.767Z,34.37
2018-02-20T04:23:37.374Z,33.13
2018-02-20T04:26:04.841Z,29.13
2018-02-20T04:28:33.086Z,28.40
2018-02-20T04:31:00.547Z,34.23
2018-02-20T04:33:27.998Z,35.00
2018-02-20T04:35:55.467Z,30.03
2018-02-20T04:38:22.934Z,32.00
2018-02-20T04:40:50.611Z,30.03
2018-02-20T04:43:18.080Z,31.90
2018-02-20T04:45:45.610Z,31.10
2018-02-20T04:48:13.376Z,36.70
2018-02-20T04:50:40.879Z,34.83
2018-02-20T04:53:08.535Z,36.40
2018-02-20T04:55:36.039Z,36.43
2018-02-20T04:58:03.634Z,46.53
2018-02-20T05:00:31.885Z,49.63
2018-02-20T05:02:59.635Z,39.97
2018-02-20T05:05:27.291Z,33.97
2018-02-20T05:07:54.870Z,32.53
2018-02-20T05:10:22.342Z,33.53
2018-02-20T05:12:49.851Z,34.97
2018-02-20T05:15:17.280Z,35.83
2018-02-20T05:17:44.730Z,33.67
2018-02-20T05:20:12.862Z,34.10
2018-02-20T05:22:40.322Z,39.37
2018-02-20T05:25:07.788Z,41.97
2018-02-20T05:27:35.302Z,50.13
2018-02-20T05:30:02.766Z,38.03
2018-02-20T05:32:30.230Z,39.80
2018-02-20T05:34:57.678Z,35.47
2018-02-20T05:37:25.139Z,36.50
2018-02-20T05:39:52.586Z,35.17
2018-02-20T05:42:20.042Z,41.60
2018-02-20T05:44:47.785Z,35.30
2018-02-20T05:47:15.257Z,35.07
2018-02-20T05:49:42.706Z,37.53
2018-02-20T05:52:10.159Z,36.27
2018-02-20T05:54:37.618Z,34.90
2018-02-20T05:57:05.979Z,33.63
2018-02-20T05:59:33.453Z,39.30
2018-02-20T06:02:00.911Z,36.40
2018-02-20T06:04:28.375Z,34.43
2018-02-20T06:06:55.831Z,38.03
2018-02-20T06:09:23.299Z,42.00
2018-02-20T06:11:50.764Z,38.03
2018-02-20T06:14:18.242Z,40.70
2018-02-20T06:16:45.770Z,42.33
2018-02-20T06:19:13.250Z,42.70
2018-02-20T06:21:40.718Z,35.67
2018-02-20T06:24:08.218Z,37.57
2018-02-20T06:26:35.684Z,43.77
2018-02-20T06:29:03.153Z,51.67
2018-02-20T06:31:30.624Z,38.90
2018-02-20T06:33:58.092Z,44.53
2018-02-20T06:36:25.605Z,39.07
2018-02-20T06:38:53.484Z,34.30
2018-02-20T06:41:20.938Z,37.80
2018-02-20T06:43:48.587Z,41.17
2018-02-20T06:46:16.039Z,41.57
2018-02-20T06:48:43.500Z,42.30
2018-02-20T06:51:10.968Z,40.20
2018-02-20T06:53:38.422Z,36.87
2018-02-20T06:56:05.877Z,35.60
2018-02-20T06:58:33.390Z,39.03
2018-02-20T07:01:00.863Z,43.53
2018-02-20T07:03:28.329Z,40.97
2018-02-20T07:05:55.798Z,37.63
2018-02-20T07:08:23.257Z,41.67
2018-02-20T07:10:50.722Z,41.23
2018-02-20T07:13:18.183Z,39.03
2018-02-20T07:15:45.640Z,41.50
2018-02-20T07:18:13.098Z,37.87
2018-02-20T07:20:40.562Z,43.47
2018-02-20T07:23:08.029Z,41.50
2018-02-20T07:25:36.259Z,48.63
2018-02-20T07:28:03.706Z,39.80
2018-02-20T07:30:31.197Z,53.47
2018-02-20T07:32:58.647Z,46.67
2018-02-20T07:35:26.107Z,39.07
2018-02-20T07:37:53.577Z,43.23
2018-02-20T07:40:21.316Z,40.53
2018-02-20T07:42:48.773Z,51.90
2018-02-20T07:45:16.229Z,38.93
2018-02-20T07:47:43.706Z,45.57
2018-02-20T07:50:11.186Z,48.67
2018-02-20T07:52:38.613Z,52.60
2018-02-20T07:55:06.069Z,58.33
2018-02-20T07:57:33.550Z,44.17
2018-02-20T08:00:01.003Z,44.70
2018-02-20T08:02:28.467Z,45.03
2018-02-20T08:04:55.927Z,41.63
2018-02-20T08:07:23.391Z,49.87
2018-02-20T08:09:50.834Z,46.17
2018-02-20T08:12:18.307Z,51.17
2018-02-20T08:14:45.763Z,47.97
2018-02-20T08:17:13.215Z,51.47
2018-02-20T08:19:40.677Z,52.07
2018-02-20T08:22:08.130Z,51.87
2018-02-20T08:24:35.586Z,59.40
2018-02-20T08:27:03.050Z,55.33
2018-02-20T08:29:30.516Z,51.57
2018-02-20T08:31:57.961Z,55.70
2018-02-20T08:34:25.423Z,52.97
2018-02-20T08:36:52.877Z,49.03
2018-02-20T08:39:20.325Z,49.80
2018-02-20T08:41:47.781Z,48.53
2018-02-20T08:44:15.234Z,49.40
2018-02-20T08:46:42.686Z,47.83
2018-02-20T08:49:10.149Z,47.90
2018-02-20T08:51:37.590Z,47.57
2018-02-20T08:54:05.126Z,51.83
2018-02-20T08:56:32.574Z,49.87
2018-02-20T08:59:00.030Z,51.30
2018-02-20T09:01:27.529Z,46.53
2018-02-20T09:03:54.986Z,44.60
2018-02-20T09:06:22.450Z,48.07
2018-02-20T09:08:50.060Z,52.43
2018-02-20T09:11:17.821Z,48.43
2018-02-20T09:13:45.274Z,47.67
2018-02-20T09:16:12.826Z,45.17
2018-02-20T09:18:40.340Z,52.53
2018-02-20T09:21:07.772Z,48.83
2018-02-20T09:23:35.255Z,42.73
2018-02-20T09:26:02.732Z,49.37
2018-02-20T09:28:30.173Z,51.40
2018-02-20T09:30:57.781Z,49.10
2018-02-20T09:33:25.218Z,46.10
2018-02-20T09:35:52.750Z,53.23
2018-02-20T09:38:20.197Z,51.73
2018-02-20T09:40:47.663Z,70.50
2018-02-20T09:43:15.114Z,76.50
2018-02-20T09:45:42.576Z,57.93
2018-02-20T09:48:10.030Z,55.67
2018-02-20T09:50:37.491Z,50.07
2018-02-20T09:53:04.942Z,48.93
2018-02-20T09:55:32.390Z,58.37
2018-02-20T09:57:59.859Z,52.97
2018-02-20T10:00:27.312Z,53.37
2018-02-20T10:02:54.766Z,53.97
2018-02-20T10:05:22.219Z,46.13
2018-02-20T10:07:49.689Z,56.03
2018-02-20T10:10:17.143Z,51.87
2018-02-20T10:12:44.593Z,53.10
2018-02-20T10:15:13.288Z,52.93
2018-02-20T10:17:40.737Z,50.73
2018-02-20T10:20:08.199Z,65.70
2018-02-20T10:22:35.654Z,56.13
2018-02-20T10:25:03.111Z,60.60
2018-02-20T10:27:30.573Z,55.87
2018-02-20T10:29:58.014Z,63.23
2018-02-20T10:32:25.466Z,58.63
2018-02-20T10:34:52.959Z,61.57
2018-02-20T10:37:20.420Z,56.23
2018-02-20T10:39:47.874Z,51.73
2018-02-20T10:42:15.332Z,57.10
2018-02-20T10:44:42.791Z,50.03
2018-02-20T10:47:10.247Z,60.30
2018-02-20T10:49:37.704Z,57.17
2018-02-20T10:52:05.150Z,55.13
2018-02-20T10:54:32.606Z,51.13
2018-02-20T10:57:00.063Z,59.37
2018-02-20T10:59:27.546Z,66.90
2018-02-20T11:01:54.996Z,72.90
2018-02-20T11:04:22.468Z,51.67
2018-02-20T11:06:49.917Z,54.43
2018-02-20T11:09:17.375Z,53.03
2018-02-20T11:11:44.827Z,47.23
2018-02-20T11:14:12.330Z,47.87
2018-02-20T11:16:39.741Z,51.97
2018-02-20T11:19:07.255Z,49.57
2018-02-20T11:21:34.724Z,66.87
2018-02-20T11:24:02.179Z,51.23
2018-02-20T11:26:29.638Z,52.33
2018-02-20T11:28:57.098Z,48.60
2018-02-20T11:31:24.554Z,51.60
2018-02-20T11:33:52.011Z,50.60
2018-02-20T11:36:19.472Z,49.77
2018-02-20T11:38:46.927Z,48.57
2018-02-20T11:41:14.403Z,55.80
2018-02-20T11:43:41.842Z,54.47
2018-02-20T11:46:09.327Z,46.03
2018-02-20T11:48:36.882Z,51.47
2018-02-20T11:51:04.338Z,44.90
2018-02-20T11:53:31.780Z,49.10
2018-02-20T11:55:59.237Z,51.63
2018-02-20T11:58:26.690Z,49.00
2018-02-20T12:00:54.159Z,53.60
2018-02-20T12:03:21.648Z,51.47
2018-02-20T12:05:49.114Z,48.80
2018-02-20T12:08:16.598Z,52.60
2018-02-20T12:10:44.050Z,48.80
2018-02-20T12:13:11.506Z,47.67
2018-02-20T12:15:38.962Z,47.83
2018-02-20T12:18:06.444Z,46.43
2018-02-20T12:20:33.886Z,51.80
2018-02-20T12:23:01.427Z,51.03
2018-02-20T12:25:29.055Z,49.03
2018-02-20T12:27:56.646Z,52.47
2018-02-20T12:30:24.518Z,48.60
2018-02-20T12:32:52.329Z,47.77
2018-02-20T12:35:19.770Z,48.67
2018-02-20T12:37:47.226Z,49.53
2018-02-20T12:40:14.671Z,50.17
2018-02-20T12:42:42.925Z,47.03
2018-02-20T12:45:10.374Z,49.80
2018-02-20T12:47:37.813Z,46.40
2018-02-20T12:50:05.290Z,53.10
2018-02-20T12:52:32.738Z,47.83
2018-02-20T12:55:00.211Z,53.27
2018-02-20T12:57:27.662Z,48.83
2018-02-20T12:59:55.130Z,47.27
2018-02-20T13:02:22.583Z,52.60
2018-02-20T13:04:50.063Z,49.50
2018-02-20T13:07:17.574Z,51.43
2018-02-20T13:09:45.000Z,45.60
2018-02-20T13:12:12.457Z,48.77
2018-02-20T13:14:39.950Z,47.37
2018-02-20T13:17:07.387Z,45.53
2018-02-20T13:19:34.838Z,51.53
2018-02-20T13:22:02.303Z,50.20
2018-02-20T13:24:29.750Z,57.30
2018-02-20T13:26:57.207Z,51.03
2018-02-20T13:29:24.658Z,48.57
2018-02-20T13:31:53.106Z,50.50
2018-02-20T13:34:20.566Z,48.33
2018-02-20T13:36:48.022Z,61.97
2018-02-20T13:39:15.473Z,58.13
2018-02-20T13:41:43.694Z,52.40
2018-02-20T13:44:11.148Z,50.47
2018-02-20T13:46:38.613Z,53.60
2018-02-20T13:49:06.825Z,61.83
2018-02-20T13:51:35.058Z,56.43
2018-02-20T13:54:02.515Z,75.50
2018-02-20T13:56:29.979Z,64.73
2018-02-20T13:58:57.429Z,69.67
2018-02-20T14:01:24.897Z,56.87
2018-02-20T14:03:52.371Z,57.83
2018-02-20T14:06:19.818Z,55.97
2018-02-20T14:08:47.273Z,55.40
2018-02-20T14:11:14.731Z,56.60
2018-02-20T14:13:42.193Z,51.40
2018-02-20T14:16:09.642Z,51.37
2018-02-20T14:18:37.101Z,53.17
2018-02-20T14:21:05.411Z,53.40
2018-02-20T14:23:32.871Z,54.30
2018-02-20T14:26:00.346Z,54.40
2018-02-20T14:28:27.809Z,52.07
2018-02-20T14:30:55.460Z,54.77
2018-02-20T14:33:22.913Z,49.90
2018-02-20T14:35:50.373Z,50.63
2018-02-20T14:38:17.838Z,51.93
2018-02-20T14:40:45.278Z,53.13
2018-02-20T14:43:12.744Z,55.83
2018-02-20T14:45:40.194Z,56.70
2018-02-20T14:48:07.670Z,51.30
2018-02-20T14:50:35.126Z,52.30
2018-02-20T14:53:02.581Z,54.73
2018-02-20T14:55:30.038Z,50.73
2018-02-20T14:57:57.500Z,52.57
2018-02-20T15:00:24.950Z,51.77
2018-02-20T15:02:52.398Z,47.70
2018-02-20T15:05:19.859Z,49.60
2018-02-20T15:07:47.309Z,47.30
2018-02-20T15:10:14.770Z,58.97
2018-02-20T15:12:42.255Z,47.80
2018-02-20T15:15:09.726Z,51.33
2018-02-20T15:17:37.181Z,51.00
2018-02-20T15:20:04.651Z,50.83
2018-02-20T15:22:32.109Z,54.47
2018-02-20T15:24:59.577Z,56.47
2018-02-20T15:27:27.023Z,51.93
2018-02-20T15:29:55.245Z,51.70
2018-02-20T15:32:22.700Z,53.57
2018-02-20T15:34:50.157Z,53.77
2018-02-20T15:37:17.613Z,55.03
2018-02-20T15:39:45.070Z,56.00
2018-02-20T15:42:12.620Z,52.57
2018-02-20T15:44:40.083Z,48.70
2018-02-20T15:47:07.540Z,53.53
2018-02-20T15:49:34.988Z,48.47
2018-02-20T15:52:02.447Z,51.80
2018-02-20T15:54:30.671Z,50.63
2018-02-20T15:56:58.134Z,51.13
2018-02-20T15:59:25.594Z,49.97
2018-02-20T16:01:56.758Z,45.80
2018-02-20T16:04:26.685Z,48.30
2018-02-20T16:06:55.550Z,46.87
2018-02-20T16:09:25.053Z,51.30
2018-02-20T16:11:54.820Z,50.97
2018-02-20T16:14:25.031Z,48.73
2018-02-20T16:16:57.493Z,48.80
2018-02-20T16:19:26.309Z,53.40
2018-02-20T16:21:56.760Z,51.07
2018-02-20T16:24:27.662Z,50.80
2018-02-20T16:26:58.084Z,49.20
2018-02-20T16:29:27.088Z,47.97
2018-02-20T16:31:54.958Z,53.20
2018-02-20T16:34:23.945Z,53.40
2018-02-20T16:36:52.552Z,48.77
2018-02-20T16:39:22.951Z,47.10
2018-02-20T16:41:51.743Z,53.47
2018-02-20T16:44:20.802Z,52.20
2018-02-20T16:46:51.102Z,53.10
2018-02-20T16:49:22.006Z,54.83
2018-02-20T16:51:49.580Z,52.03
2018-02-20T16:54:18.323Z,48.97
2018-02-20T16:56:46.717Z,51.73
2018-02-20T16:59:16.600Z,50.73
2018-02-20T17:01:46.178Z,51.17
2018-02-20T17:04:18.048Z,52.30
2018-02-20T17:06:46.096Z,51.37
2018-02-20T17:09:13.848Z,53.30
2018-02-20T17:11:41.509Z,55.13
2018-02-20T17:14:09.020Z,55.00
2018-02-20T17:16:37.539Z,55.23
2018-02-20T17:19:06.722Z,52.03
2018-02-20T17:21:35.107Z,53.87
2018-02-20T17:24:04.691Z,55.13
2018-02-20T17:26:34.295Z,55.50
2018-02-20T17:29:03.635Z,53.50
2018-02-20T17:31:31.426Z,53.93
2018-02-20T17:34:00.376Z,56.00
2018-02-20T17:36:29.165Z,57.30
2018-02-20T17:38:58.537Z,58.13
2018-02-20T17:41:27.669Z,59.43
2018-02-20T17:43:56.308Z,55.70
2018-02-20T17:46:24.279Z,57.27
2018-02-20T17:48:52.460Z,55.83
2018-02-20T17:51:20.924Z,56.07
2018-02-20T17:53:49.775Z,55.63
2018-02-20T17:56:17.524Z,53.63
2018-02-20T17:58:46.919Z,54.10
2018-02-20T18:01:14.899Z,54.83
2018-02-20T18:03:42.961Z,53.93
2018-02-20T18:06:11.046Z,59.03
2018-02-20T18:08:38.837Z,57.10
2018-02-20T18:11:07.289Z,54.80
2018-02-20T18:13:35.000Z,58.20
2018-02-20T18:16:03.010Z,62.87
2018-02-20T18:18:32.001Z,59.93
2018-02-20T18:21:00.433Z,61.60
2018-02-20T18:23:28.503Z,63.63
2018-02-20T18:25:57.311Z,63.43
2018-02-20T18:28:27.024Z,64.00
2018-02-20T18:30:56.476Z,62.33
2018-02-20T18:33:25.173Z,59.03
2018-02-20T18:35:54.941Z,56.63
2018-02-20T18:38:23.437Z,58.67
2018-02-20T18:40:52.086Z,58.70
2018-02-20T18:43:20.024Z,60.53
2018-02-20T18:45:49.130Z,58.30
2018-02-20T18:48:20.086Z,56.07
2018-02-20T18:50:48.506Z,57.73
2018-02-20T18:53:17.776Z,50.87
2018-02-20T18:55:48.237Z,53.00
2018-02-20T18:58:16.312Z,52.63
2018-02-20T19:00:49.871Z,51.10
2018-02-20T19:03:17.648Z,54.40
2018-02-20T19:05:46.334Z,55.17
2018-02-20T19:08:14.601Z,56.93
2018-02-20T19:10:43.826Z,57.87
2018-02-20T19:13:13.694Z,51.33
2018-02-20T19:15:42.868Z,55.83
2018-02-20T19:18:12.014Z,51.63
2018-02-20T19:20:40.375Z,56.73
2018-02-20T19:23:09.584Z,49.83
2018-02-20T19:25:40.174Z,60.20
2018-02-20T19:28:09.531Z,60.17
2018-02-20T19:30:44.127Z,57.07
2018-02-20T19:33:16.742Z,55.30
2018-02-20T19:35:44.548Z,56.13
2018-02-20T19:38:13.874Z,52.67
2018-02-20T19:40:42.024Z,52.87
2018-02-20T19:43:10.295Z,55.13
2018-02-20T19:45:38.093Z,57.80
2018-02-20T19:48:06.315Z,55.47
2018-02-20T19:50:35.711Z,56.40
2018-02-20T19:53:04.344Z,53.03
2018-02-20T19:55:32.770Z,52.67
2018-02-20T19:58:01.667Z,53.07
2018-02-20T20:00:29.756Z,54.90
2018-02-20T20:03:01.232Z,50.10
2018-02-20T20:05:29.561Z,56.87
2018-02-20T20:07:57.811Z,53.53
2018-02-20T20:10:27.913Z,52.30
2018-02-20T20:12:57.869Z,56.30
2018-02-20T20:15:25.638Z,59.60
2018-02-20T20:17:53.650Z,54.03
2018-02-20T20:20:22.306Z,62.20
2018-02-20T20:22:49.925Z,66.40
2018-02-20T20:25:18.414Z,54.70
2018-02-20T20:27:46.211Z,56.83
2018-02-20T20:30:13.774Z,60.23
2018-02-20T20:32:41.583Z,58.90
2018-02-20T20:35:09.299Z,57.70
2018-02-20T20:37:37.679Z,57.17
2018-02-20T20:40:05.480Z,59.87
2018-02-20T20:42:33.748Z,54.63
2018-02-20T20:45:03.188Z,56.33
2018-02-20T20:47:31.928Z,58.23
2018-02-20T20:50:00.987Z,59.83
2018-02-20T20:52:30.258Z,57.63
2018-02-20T20:55:00.328Z,57.53
2018-02-20T20:57:30.280Z,60.37
2018-02-20T20:59:58.811Z,55.43
2018-02-20T21:02:28.001Z,63.83
2018-02-20T21:04:55.868Z,58.77
2018-02-20T21:07:25.150Z,63.93
2018-02-20T21:09:55.692Z,58.03
2018-02-20T21:12:25.989Z,66.77
2018-02-20T21:14:54.403Z,56.07
2018-02-20T21:17:23.394Z,57.67
2018-02-20T21:19:52.863Z,58.07
2018-02-20T21:22:21.702Z,56.40
2018-02-20T21:24:50.673Z,56.57
2018-02-20T21:27:21.973Z,60.60
2018-02-20T21:29:51.047Z,66.97
2018-02-20T21:32:18.936Z,64.70
2018-02-20T21:34:47.582Z,56.47
2018-02-20T21:37:16.946Z,64.10
2018-02-20T21:39:45.901Z,62.77
2018-02-20T21:42:15.710Z,63.43
2018-02-20T21:44:44.089Z,59.97
2018-02-20T21:47:12.489Z,60.50
2018-02-20T21:49:40.489Z,64.00
2018-02-20T21:52:09.200Z,58.90
2018-02-20T21:54:37.551Z,56.83
2018-02-20T21:57:06.208Z,60.80
2018-02-20T21:59:35.588Z,61.23
2018-02-20T22:02:03.488Z,60.40
2018-02-20T22:04:32.541Z,62.67
2018-02-20T22:07:00.448Z,62.03
2018-02-20T22:09:29.303Z,63.50
2018-02-20T22:12:03.380Z,60.50
2018-02-20T22:14:32.133Z,61.00
2018-02-20T22:17:00.809Z,62.80
2018-02-20T22:19:32.229Z,64.80
2018-02-20T22:22:02.558Z,65.27
2018-02-20T22:24:30.493Z,61.53
2018-02-20T22:26:58.816Z,71.20
2018-02-20T22:29:27.114Z,64.50
2018-02-20T22:31:54.805Z,63.37
2018-02-20T22:34:23.217Z,67.93
2018-02-20T22:36:52.806Z,63.07
2018-02-20T22:39:21.048Z,64.03
2018-02-20T22:41:49.000Z,63.47
2018-02-20T22:44:17.812Z,69.07
2018-02-20T22:46:47.113Z,65.97
2018-02-20T22:49:15.169Z,69.80
2018-02-20T22:51:43.845Z,63.13
2018-02-20T22:54:13.199Z,71.47
2018-02-20T22:56:42.092Z,71.27
2018-02-20T22:59:11.026Z,67.77
2018-02-20T23:01:40.438Z,71.77
2018-02-20T23:04:08.607Z,66.77
2018-02-20T23:06:36.927Z,76.73
2018-02-20T23:09:04.384Z,73.90
2018-02-20T23:11:43.845Z,75.77
2018-02-20T23:14:11.285Z,75.83
2018-02-20T23:16:38.815Z,72.20
2018-02-20T23:19:06.254Z,79.60
2018-02-20T23:21:33.719Z,79.43
2018-02-20T23:24:01.172Z,76.87
2018-02-20T23:26:28.634Z,74.97
2018-02-20T23:28:56.103Z,79.67
2018-02-20T23:31:23.567Z,77.77
2018-02-20T23:33:51.076Z,79.53
2018-02-20T23:36:18.529Z,77.53
2018-02-20T23:38:46.787Z,83.77
2018-02-20T23:41:14.258Z,85.93
2018-02-20T23:43:41.732Z,81.23
2018-02-20T23:46:09.240Z,81.87
2018-02-20T23:48:36.700Z,91.30
2018-02-20T23:51:09.702Z,82.07
2018-02-20T23:53:37.179Z,80.63
2018-02-20T23:56:04.628Z,84.27
2018-02-20T23:58:32.081Z,85.90
